sensor_id;sensor_type;location;lat;lon;timestamp;P1;durP1;ratioP1;P2;durP2;ratioP2
30096;SDS011;16915;51.466;3.610;2022-07-18T00:00:10;3.50;;;2.85;;
30096;SDS011;16915;51.466;3.610;2022-07-18T00:02:36;5.05;;;3.15;;
30096;SDS011;16915;51.466;3.610;2022-07-18T00:05:03;2.78;;;2.58;;
30096;SDS011;16915;51.466;3.610;2022-07-18T00:07:29;4.78;;;3.08;;
30096;SDS011;16915;51.466;3.610;2022-07-18T00:09:55;4.63;;;3.40;;
30096;SDS011;16915;51.466;3.610;2022-07-18T00:12:21;4.97;;;2.85;;
30096;SDS011;16915;51.466;3.610;2022-07-18T00:14:47;4.57;;;2.67;;
30096;SDS011;16915;51.466;3.610;2022-07-18T00:17:13;2.97;;;2.55;;
30096;SDS011;16915;51.466;3.610;2022-07-18T00:19:40;2.85;;;2.05;;
30096;SDS011;16915;51.466;3.610;2022-07-18T00:22:06;4.78;;;2.42;;
30096;SDS011;16915;51.466;3.610;2022-07-18T00:24:35;3.67;;;2.65;;
30096;SDS011;16915;51.466;3.610;2022-07-18T00:27:02;2.88;;;1.98;;
30096;SDS011;16915;51.466;3.610;2022-07-18T00:29:30;2.83;;;2.15;;
30096;SDS011;16915;51.466;3.610;2022-07-18T00:32:02;2.60;;;2.20;;
30096;SDS011;16915;51.466;3.610;2022-07-18T00:34:29;2.60;;;1.95;;
30096;SDS011;16915;51.466;3.610;2022-07-18T00:36:56;5.32;;;2.00;;
30096;SDS011;16915;51.466;3.610;2022-07-18T00:39:23;2.83;;;2.17;;
30096;SDS011;16915;51.466;3.610;2022-07-18T00:41:49;2.55;;;1.73;;
30096;SDS011;16915;51.466;3.610;2022-07-18T00:44:19;5.45;;;2.05;;
30096;SDS011;16915;51.466;3.610;2022-07-18T00:46:53;3.65;;;1.83;;
30096;SDS011;16915;51.466;3.610;2022-07-18T00:49:20;2.13;;;1.88;;
30096;SDS011;16915;51.466;3.610;2022-07-18T00:52:00;3.85;;;1.85;;
30096;SDS011;16915;51.466;3.610;2022-07-18T00:54:30;3.25;;;2.13;;
30096;SDS011;16915;51.466;3.610;2022-07-18T00:56:57;3.90;;;2.85;;
30096;SDS011;16915;51.466;3.610;2022-07-18T00:59:25;2.88;;;2.00;;
30096;SDS011;16915;51.466;3.610;2022-07-18T01:02:11;4.55;;;2.17;;
30096;SDS011;16915;51.466;3.610;2022-07-18T01:04:39;4.80;;;2.05;;
30096;SDS011;16915;51.466;3.610;2022-07-18T01:07:07;4.35;;;1.80;;
30096;SDS011;16915;51.466;3.610;2022-07-18T01:09:39;2.15;;;1.80;;
30096;SDS011;16915;51.466;3.610;2022-07-18T01:14:32;5.45;;;2.60;;
30096;SDS011;16915;51.466;3.610;2022-07-18T01:17:15;3.65;;;2.13;;
30096;SDS011;16915;51.466;3.610;2022-07-18T01:19:43;7.10;;;2.45;;
30096;SDS011;16915;51.466;3.610;2022-07-18T01:22:10;4.70;;;2.42;;
30096;SDS011;16915;51.466;3.610;2022-07-18T01:24:37;3.05;;;2.05;;
30096;SDS011;16915;51.466;3.610;2022-07-18T01:27:07;5.07;;;2.47;;
30096;SDS011;16915;51.466;3.610;2022-07-18T01:29:33;3.08;;;2.30;;
30096;SDS011;16915;51.466;3.610;2022-07-18T01:32:05;4.78;;;1.90;;
30096;SDS011;16915;51.466;3.610;2022-07-18T01:34:34;8.13;;;2.50;;
30096;SDS011;16915;51.466;3.610;2022-07-18T01:37:01;3.05;;;1.88;;
30096;SDS011;16915;51.466;3.610;2022-07-18T01:39:27;4.50;;;2.00;;
30096;SDS011;16915;51.466;3.610;2022-07-18T01:42:01;4.15;;;2.20;;
30096;SDS011;16915;51.466;3.610;2022-07-18T01:44:31;3.38;;;2.22;;
30096;SDS011;16915;51.466;3.610;2022-07-18T01:47:02;6.97;;;2.20;;
30096;SDS011;16915;51.466;3.610;2022-07-18T01:49:32;3.28;;;2.33;;
30096;SDS011;16915;51.466;3.610;2022-07-18T01:52:01;3.05;;;2.00;;
30096;SDS011;16915;51.466;3.610;2022-07-18T01:54:31;2.50;;;1.90;;
30096;SDS011;16915;51.466;3.610;2022-07-18T01:56:59;3.97;;;2.25;;
30096;SDS011;16915;51.466;3.610;2022-07-18T01:59:26;5.50;;;2.22;;
30096;SDS011;16915;51.466;3.610;2022-07-18T02:01:53;4.13;;;2.30;;
30096;SDS011;16915;51.466;3.610;2022-07-18T02:04:19;5.53;;;2.13;;
30096;SDS011;16915;51.466;3.610;2022-07-18T02:06:44;5.05;;;2.67;;
30096;SDS011;16915;51.466;3.610;2022-07-18T02:09:11;7.10;;;2.40;;
30096;SDS011;16915;51.466;3.610;2022-07-18T02:11:39;7.68;;;2.20;;
30096;SDS011;16915;51.466;3.610;2022-07-18T02:14:05;4.28;;;2.55;;
30096;SDS011;16915;51.466;3.610;2022-07-18T02:16:34;7.72;;;2.55;;
30096;SDS011;16915;51.466;3.610;2022-07-18T02:19:00;3.28;;;2.00;;
30096;SDS011;16915;51.466;3.610;2022-07-18T02:21:28;3.63;;;2.40;;
30096;SDS011;16915;51.466;3.610;2022-07-18T02:23:55;4.97;;;2.70;;
30096;SDS011;16915;51.466;3.610;2022-07-18T02:26:23;5.80;;;2.47;;
30096;SDS011;16915;51.466;3.610;2022-07-18T02:31:20;3.90;;;2.40;;
30096;SDS011;16915;51.466;3.610;2022-07-18T02:33:48;2.88;;;1.70;;
30096;SDS011;16915;51.466;3.610;2022-07-18T02:36:14;2.65;;;1.92;;
30096;SDS011;16915;51.466;3.610;2022-07-18T02:38:41;3.58;;;2.30;;
30096;SDS011;16915;51.466;3.610;2022-07-18T02:41:07;4.28;;;2.22;;
30096;SDS011;16915;51.466;3.610;2022-07-18T02:43:33;5.15;;;2.25;;
30096;SDS011;16915;51.466;3.610;2022-07-18T02:45:59;5.60;;;2.63;;
30096;SDS011;16915;51.466;3.610;2022-07-18T02:48:26;3.15;;;1.92;;
30096;SDS011;16915;51.466;3.610;2022-07-18T02:50:53;4.13;;;2.13;;
30096;SDS011;16915;51.466;3.610;2022-07-18T02:53:19;3.15;;;1.92;;
30096;SDS011;16915;51.466;3.610;2022-07-18T02:55:47;7.15;;;2.17;;
30096;SDS011;16915;51.466;3.610;2022-07-18T02:58:13;2.20;;;2.00;;
30096;SDS011;16915;51.466;3.610;2022-07-18T03:00:38;3.95;;;1.77;;
30096;SDS011;16915;51.466;3.610;2022-07-18T03:03:08;4.50;;;1.90;;
30096;SDS011;16915;51.466;3.610;2022-07-18T03:05:35;5.45;;;1.70;;
30096;SDS011;16915;51.466;3.610;2022-07-18T03:08:00;4.50;;;1.70;;
30096;SDS011;16915;51.466;3.610;2022-07-18T03:10:30;1.70;;;1.60;;
30096;SDS011;16915;51.466;3.610;2022-07-18T03:12:57;2.97;;;1.80;;
30096;SDS011;16915;51.466;3.610;2022-07-18T03:15:33;5.15;;;2.40;;
30096;SDS011;16915;51.466;3.610;2022-07-18T03:18:00;3.83;;;2.22;;
30096;SDS011;16915;51.466;3.610;2022-07-18T03:20:26;5.97;;;1.92;;
30096;SDS011;16915;51.466;3.610;2022-07-18T03:22:52;2.72;;;2.10;;
30096;SDS011;16915;51.466;3.610;2022-07-18T03:25:22;2.30;;;2.10;;
30096;SDS011;16915;51.466;3.610;2022-07-18T03:27:49;5.15;;;2.40;;
30096;SDS011;16915;51.466;3.610;2022-07-18T03:30:14;3.03;;;1.95;;
30096;SDS011;16915;51.466;3.610;2022-07-18T03:32:40;5.30;;;1.90;;
30096;SDS011;16915;51.466;3.610;2022-07-18T03:35:06;7.60;;;2.78;;
30096;SDS011;16915;51.466;3.610;2022-07-18T03:37:32;6.18;;;2.35;;
30096;SDS011;16915;51.466;3.610;2022-07-18T03:39:58;4.82;;;2.00;;
30096;SDS011;16915;51.466;3.610;2022-07-18T03:42:23;8.30;;;2.22;;
30096;SDS011;16915;51.466;3.610;2022-07-18T03:44:51;4.03;;;2.22;;
30096;SDS011;16915;51.466;3.610;2022-07-18T03:47:17;6.10;;;1.95;;
30096;SDS011;16915;51.466;3.610;2022-07-18T03:49:44;4.25;;;2.42;;
30096;SDS011;16915;51.466;3.610;2022-07-18T03:52:10;5.22;;;2.45;;
30096;SDS011;16915;51.466;3.610;2022-07-18T03:54:38;6.25;;;2.40;;
30096;SDS011;16915;51.466;3.610;2022-07-18T03:57:04;5.50;;;2.20;;
30096;SDS011;16915;51.466;3.610;2022-07-18T03:59:42;5.00;;;2.65;;
30096;SDS011;16915;51.466;3.610;2022-07-18T04:02:07;5.97;;;2.33;;
30096;SDS011;16915;51.466;3.610;2022-07-18T04:04:33;5.82;;;2.50;;
30096;SDS011;16915;51.466;3.610;2022-07-18T04:07:00;3.05;;;2.05;;
30096;SDS011;16915;51.466;3.610;2022-07-18T04:09:26;5.13;;;1.58;;
30096;SDS011;16915;51.466;3.610;2022-07-18T04:11:52;3.50;;;2.10;;
30096;SDS011;16915;51.466;3.610;2022-07-18T04:14:18;3.92;;;1.88;;
30096;SDS011;16915;51.466;3.610;2022-07-18T04:16:47;3.88;;;1.85;;
30096;SDS011;16915;51.466;3.610;2022-07-18T04:19:13;1.60;;;1.42;;
30096;SDS011;16915;51.466;3.610;2022-07-18T04:21:39;3.47;;;1.95;;
30096;SDS011;16915;51.466;3.610;2022-07-18T04:24:05;6.22;;;2.00;;
30096;SDS011;16915;51.466;3.610;2022-07-18T04:26:31;5.47;;;1.88;;
30096;SDS011;16915;51.466;3.610;2022-07-18T04:28:57;2.67;;;1.70;;
30096;SDS011;16915;51.466;3.610;2022-07-18T04:31:23;6.03;;;2.25;;
30096;SDS011;16915;51.466;3.610;2022-07-18T04:33:48;3.67;;;1.60;;
30096;SDS011;16915;51.466;3.610;2022-07-18T04:36:14;4.57;;;1.60;;
30096;SDS011;16915;51.466;3.610;2022-07-18T04:38:43;5.93;;;2.10;;
30096;SDS011;16915;51.466;3.610;2022-07-18T04:41:09;3.88;;;2.10;;
30096;SDS011;16915;51.466;3.610;2022-07-18T04:43:36;4.57;;;1.80;;
30096;SDS011;16915;51.466;3.610;2022-07-18T04:46:02;3.03;;;2.00;;
30096;SDS011;16915;51.466;3.610;2022-07-18T04:48:27;4.03;;;2.20;;
30096;SDS011;16915;51.466;3.610;2022-07-18T04:50:54;2.78;;;1.75;;
30096;SDS011;16915;51.466;3.610;2022-07-18T04:53:19;2.20;;;1.65;;
30096;SDS011;16915;51.466;3.610;2022-07-18T04:55:45;4.43;;;1.80;;
30096;SDS011;16915;51.466;3.610;2022-07-18T04:58:11;2.40;;;1.73;;
30096;SDS011;16915;51.466;3.610;2022-07-18T05:00:37;3.72;;;1.55;;
30096;SDS011;16915;51.466;3.610;2022-07-18T05:03:03;5.53;;;1.63;;
30096;SDS011;16915;51.466;3.610;2022-07-18T05:05:30;2.17;;;1.98;;
30096;SDS011;16915;51.466;3.610;2022-07-18T05:07:58;2.63;;;1.35;;
30096;SDS011;16915;51.466;3.610;2022-07-18T05:10:26;5.07;;;1.42;;
30096;SDS011;16915;51.466;3.610;2022-07-18T05:12:55;4.00;;;1.40;;
30096;SDS011;16915;51.466;3.610;2022-07-18T05:15:23;2.22;;;1.63;;
30096;SDS011;16915;51.466;3.610;2022-07-18T05:17:59;3.65;;;1.77;;
30096;SDS011;16915;51.466;3.610;2022-07-18T05:20:34;4.53;;;1.88;;
30096;SDS011;16915;51.466;3.610;2022-07-18T05:23:06;5.53;;;1.55;;
30096;SDS011;16915;51.466;3.610;2022-07-18T05:25:32;3.70;;;1.55;;
30096;SDS011;16915;51.466;3.610;2022-07-18T05:27:57;2.45;;;1.80;;
30096;SDS011;16915;51.466;3.610;2022-07-18T05:30:25;3.15;;;2.17;;
30096;SDS011;16915;51.466;3.610;2022-07-18T05:32:51;2.83;;;1.98;;
30096;SDS011;16915;51.466;3.610;2022-07-18T05:35:27;6.70;;;2.42;;
30096;SDS011;16915;51.466;3.610;2022-07-18T05:37:53;6.53;;;3.50;;
30096;SDS011;16915;51.466;3.610;2022-07-18T05:40:19;6.38;;;3.70;;
30096;SDS011;16915;51.466;3.610;2022-07-18T05:42:44;7.40;;;3.53;;
30096;SDS011;16915;51.466;3.610;2022-07-18T05:45:11;5.10;;;3.08;;
30096;SDS011;16915;51.466;3.610;2022-07-18T05:47:37;4.78;;;2.78;;
30096;SDS011;16915;51.466;3.610;2022-07-18T05:50:03;4.03;;;2.38;;
30096;SDS011;16915;51.466;3.610;2022-07-18T05:52:29;6.30;;;1.83;;
30096;SDS011;16915;51.466;3.610;2022-07-18T05:54:55;3.50;;;1.85;;
30096;SDS011;16915;51.466;3.610;2022-07-18T05:57:21;5.25;;;1.70;;
30096;SDS011;16915;51.466;3.610;2022-07-18T05:59:46;3.60;;;1.50;;
30096;SDS011;16915;51.466;3.610;2022-07-18T06:02:12;2.10;;;1.38;;
30096;SDS011;16915;51.466;3.610;2022-07-18T06:04:37;7.03;;;1.73;;
30096;SDS011;16915;51.466;3.610;2022-07-18T06:07:03;7.30;;;1.83;;
30096;SDS011;16915;51.466;3.610;2022-07-18T06:09:29;3.22;;;1.60;;
30096;SDS011;16915;51.466;3.610;2022-07-18T06:11:59;6.82;;;2.10;;
30096;SDS011;16915;51.466;3.610;2022-07-18T06:14:28;3.95;;;1.70;;
30096;SDS011;16915;51.466;3.610;2022-07-18T06:16:56;4.63;;;2.00;;
30096;SDS011;16915;51.466;3.610;2022-07-18T06:19:21;5.15;;;1.70;;
30096;SDS011;16915;51.466;3.610;2022-07-18T06:21:47;5.07;;;1.73;;
30096;SDS011;16915;51.466;3.610;2022-07-18T06:24:13;6.35;;;2.10;;
30096;SDS011;16915;51.466;3.610;2022-07-18T06:26:39;6.88;;;2.17;;
30096;SDS011;16915;51.466;3.610;2022-07-18T06:29:04;8.63;;;2.20;;
30096;SDS011;16915;51.466;3.610;2022-07-18T06:31:30;6.57;;;2.58;;
30096;SDS011;16915;51.466;3.610;2022-07-18T06:33:56;16.75;;;4.00;;
30096;SDS011;16915;51.466;3.610;2022-07-18T06:36:21;7.95;;;2.78;;
30096;SDS011;16915;51.466;3.610;2022-07-18T06:38:49;35.50;;;5.50;;
30096;SDS011;16915;51.466;3.610;2022-07-18T06:41:16;13.55;;;3.60;;
30096;SDS011;16915;51.466;3.610;2022-07-18T06:43:42;18.67;;;4.28;;
30096;SDS011;16915;51.466;3.610;2022-07-18T06:46:08;9.70;;;3.47;;
30096;SDS011;16915;51.466;3.610;2022-07-18T06:48:34;6.15;;;3.13;;
30096;SDS011;16915;51.466;3.610;2022-07-18T06:51:00;8.93;;;2.85;;
30096;SDS011;16915;51.466;3.610;2022-07-18T06:53:27;5.18;;;2.30;;
30096;SDS011;16915;51.466;3.610;2022-07-18T06:55:53;26.67;;;5.25;;
30096;SDS011;16915;51.466;3.610;2022-07-18T06:58:20;6.80;;;2.72;;
30096;SDS011;16915;51.466;3.610;2022-07-18T07:00:45;8.30;;;2.35;;
30096;SDS011;16915;51.466;3.610;2022-07-18T07:03:11;8.35;;;2.80;;
30096;SDS011;16915;51.466;3.610;2022-07-18T07:05:37;5.57;;;2.20;;
30096;SDS011;16915;51.466;3.610;2022-07-18T07:08:03;9.50;;;2.58;;
30096;SDS011;16915;51.466;3.610;2022-07-18T07:10:29;5.75;;;1.90;;
30096;SDS011;16915;51.466;3.610;2022-07-18T07:12:54;8.13;;;2.40;;
30096;SDS011;16915;51.466;3.610;2022-07-18T07:15:20;11.85;;;2.80;;
30096;SDS011;16915;51.466;3.610;2022-07-18T07:17:47;8.10;;;2.63;;
30096;SDS011;16915;51.466;3.610;2022-07-18T07:20:13;4.82;;;2.30;;
30096;SDS011;16915;51.466;3.610;2022-07-18T07:22:47;6.57;;;2.17;;
30096;SDS011;16915;51.466;3.610;2022-07-18T07:25:15;6.55;;;2.40;;
30096;SDS011;16915;51.466;3.610;2022-07-18T07:27:42;5.25;;;2.40;;
30096;SDS011;16915;51.466;3.610;2022-07-18T07:30:09;9.80;;;3.05;;
30096;SDS011;16915;51.466;3.610;2022-07-18T07:32:36;7.53;;;2.53;;
30096;SDS011;16915;51.466;3.610;2022-07-18T07:35:03;5.20;;;2.75;;
30096;SDS011;16915;51.466;3.610;2022-07-18T07:37:35;5.63;;;2.38;;
30096;SDS011;16915;51.466;3.610;2022-07-18T07:40:02;5.80;;;2.60;;
30096;SDS011;16915;51.466;3.610;2022-07-18T07:42:28;8.68;;;2.65;;
30096;SDS011;16915;51.466;3.610;2022-07-18T07:44:54;5.22;;;2.25;;
30096;SDS011;16915;51.466;3.610;2022-07-18T07:47:20;4.13;;;2.28;;
30096;SDS011;16915;51.466;3.610;2022-07-18T07:49:46;7.18;;;2.80;;
30096;SDS011;16915;51.466;3.610;2022-07-18T07:52:11;4.30;;;2.25;;
30096;SDS011;16915;51.466;3.610;2022-07-18T07:54:38;5.07;;;2.53;;
30096;SDS011;16915;51.466;3.610;2022-07-18T07:57:05;7.63;;;2.33;;
30096;SDS011;16915;51.466;3.610;2022-07-18T07:59:46;4.18;;;2.53;;
30096;SDS011;16915;51.466;3.610;2022-07-18T08:02:12;7.82;;;2.53;;
30096;SDS011;16915;51.466;3.610;2022-07-18T08:04:38;8.80;;;1.83;;
30096;SDS011;16915;51.466;3.610;2022-07-18T08:07:04;5.38;;;2.22;;
30096;SDS011;16915;51.466;3.610;2022-07-18T08:09:29;9.23;;;2.70;;
30096;SDS011;16915;51.466;3.610;2022-07-18T08:11:55;3.90;;;2.40;;
30096;SDS011;16915;51.466;3.610;2022-07-18T08:14:21;3.45;;;2.10;;
30096;SDS011;16915;51.466;3.610;2022-07-18T08:16:46;10.00;;;2.60;;
30096;SDS011;16915;51.466;3.610;2022-07-18T08:19:12;3.70;;;2.30;;
30096;SDS011;16915;51.466;3.610;2022-07-18T08:21:38;7.10;;;1.92;;
30096;SDS011;16915;51.466;3.610;2022-07-18T08:24:04;7.07;;;2.47;;
30096;SDS011;16915;51.466;3.610;2022-07-18T08:26:30;5.63;;;2.13;;
30096;SDS011;16915;51.466;3.610;2022-07-18T08:28:55;5.65;;;2.50;;
30096;SDS011;16915;51.466;3.610;2022-07-18T08:31:21;4.88;;;2.30;;
30096;SDS011;16915;51.466;3.610;2022-07-18T08:33:47;5.28;;;1.98;;
30096;SDS011;16915;51.466;3.610;2022-07-18T08:36:13;5.30;;;2.30;;
30096;SDS011;16915;51.466;3.610;2022-07-18T08:38:38;7.78;;;1.70;;
30096;SDS011;16915;51.466;3.610;2022-07-18T08:41:04;7.35;;;1.77;;
30096;SDS011;16915;51.466;3.610;2022-07-18T08:43:30;3.53;;;1.83;;
30096;SDS011;16915;51.466;3.610;2022-07-18T08:45:58;4.13;;;1.77;;
30096;SDS011;16915;51.466;3.610;2022-07-18T08:48:29;2.95;;;1.60;;
30096;SDS011;16915;51.466;3.610;2022-07-18T08:50:55;6.28;;;2.22;;
30096;SDS011;16915;51.466;3.610;2022-07-18T08:53:20;3.47;;;1.73;;
30096;SDS011;16915;51.466;3.610;2022-07-18T08:55:46;5.88;;;2.05;;
30096;SDS011;16915;51.466;3.610;2022-07-18T08:58:13;2.70;;;1.70;;
30096;SDS011;16915;51.466;3.610;2022-07-18T09:00:42;10.23;;;2.30;;
30096;SDS011;16915;51.466;3.610;2022-07-18T09:03:11;5.72;;;1.95;;
30096;SDS011;16915;51.466;3.610;2022-07-18T09:05:37;3.33;;;1.30;;
30096;SDS011;16915;51.466;3.610;2022-07-18T09:08:13;3.42;;;1.90;;
30096;SDS011;16915;51.466;3.610;2022-07-18T09:10:55;5.60;;;1.73;;
30096;SDS011;16915;51.466;3.610;2022-07-18T09:13:23;5.38;;;2.25;;
30096;SDS011;16915;51.466;3.610;2022-07-18T09:16:03;6.47;;;2.15;;
30096;SDS011;16915;51.466;3.610;2022-07-18T09:18:39;3.53;;;1.63;;
30096;SDS011;16915;51.466;3.610;2022-07-18T09:21:08;5.90;;;2.20;;
30096;SDS011;16915;51.466;3.610;2022-07-18T09:23:39;4.13;;;1.67;;
30096;SDS011;16915;51.466;3.610;2022-07-18T09:26:10;4.18;;;1.63;;
30096;SDS011;16915;51.466;3.610;2022-07-18T09:28:50;3.90;;;2.00;;
30096;SDS011;16915;51.466;3.610;2022-07-18T09:31:22;5.15;;;1.65;;
30096;SDS011;16915;51.466;3.610;2022-07-18T09:33:57;3.53;;;1.30;;
30096;SDS011;16915;51.466;3.610;2022-07-18T09:36:24;4.63;;;1.50;;
30096;SDS011;16915;51.466;3.610;2022-07-18T09:38:51;4.03;;;1.60;;
30096;SDS011;16915;51.466;3.610;2022-07-18T09:41:27;3.35;;;1.70;;
30096;SDS011;16915;51.466;3.610;2022-07-18T09:43:58;4.35;;;1.77;;
30096;SDS011;16915;51.466;3.610;2022-07-18T09:49:07;7.10;;;1.73;;
30096;SDS011;16915;51.466;3.610;2022-07-18T09:51:34;2.97;;;1.45;;
30096;SDS011;16915;51.466;3.610;2022-07-18T09:53:59;3.38;;;1.65;;
30096;SDS011;16915;51.466;3.610;2022-07-18T09:56:26;5.30;;;1.50;;
30096;SDS011;16915;51.466;3.610;2022-07-18T09:58:54;3.25;;;1.45;;
30096;SDS011;16915;51.466;3.610;2022-07-18T10:01:21;2.20;;;1.48;;
30096;SDS011;16915;51.466;3.610;2022-07-18T10:03:47;2.97;;;1.20;;
30096;SDS011;16915;51.466;3.610;2022-07-18T10:06:14;3.20;;;1.60;;
30096;SDS011;16915;51.466;3.610;2022-07-18T10:08:41;2.53;;;1.20;;
30096;SDS011;16915;51.466;3.610;2022-07-18T10:11:07;3.53;;;1.27;;
30096;SDS011;16915;51.466;3.610;2022-07-18T10:13:34;3.67;;;1.10;;
30096;SDS011;16915;51.466;3.610;2022-07-18T10:16:01;2.38;;;1.27;;
30096;SDS011;16915;51.466;3.610;2022-07-18T10:18:28;1.58;;;1.40;;
30096;SDS011;16915;51.466;3.610;2022-07-18T10:21:07;3.38;;;1.50;;
30096;SDS011;16915;51.466;3.610;2022-07-18T10:23:35;1.75;;;1.00;;
30096;SDS011;16915;51.466;3.610;2022-07-18T10:31:25;7.35;;;1.02;;
30096;SDS011;16915;51.466;3.610;2022-07-18T10:33:51;2.43;;;1.10;;
30096;SDS011;16915;51.466;3.610;2022-07-18T10:36:18;2.45;;;1.45;;
30096;SDS011;16915;51.466;3.610;2022-07-18T10:49:59;2.97;;;1.10;;
30096;SDS011;16915;51.466;3.610;2022-07-18T10:57:33;2.47;;;1.17;;
30096;SDS011;16915;51.466;3.610;2022-07-18T11:02:33;1.10;;;1.10;;
30096;SDS011;16915;51.466;3.610;2022-07-18T11:21:22;4.82;;;2.35;;
30096;SDS011;16915;51.466;3.610;2022-07-18T11:23:51;3.53;;;1.20;;
30096;SDS011;16915;51.466;3.610;2022-07-18T11:26:26;1.85;;;1.05;;
30096;SDS011;16915;51.466;3.610;2022-07-18T11:29:00;3.45;;;1.20;;
30096;SDS011;16915;51.466;3.610;2022-07-18T11:31:29;3.47;;;1.00;;
30096;SDS011;16915;51.466;3.610;2022-07-18T11:33:58;4.75;;;1.10;;
30096;SDS011;16915;51.466;3.610;2022-07-18T11:36:28;4.28;;;1.50;;
30096;SDS011;16915;51.466;3.610;2022-07-18T11:38:57;7.05;;;1.20;;
30096;SDS011;16915;51.466;3.610;2022-07-18T11:41:25;1.38;;;1.08;;
30096;SDS011;16915;51.466;3.610;2022-07-18T11:43:55;2.58;;;1.38;;
30096;SDS011;16915;51.466;3.610;2022-07-18T11:46:22;1.27;;;1.17;;
30096;SDS011;16915;51.466;3.610;2022-07-18T11:49:02;2.65;;;1.30;;
30096;SDS011;16915;51.466;3.610;2022-07-18T11:51:36;4.82;;;1.10;;
30096;SDS011;16915;51.466;3.610;2022-07-18T11:54:11;1.20;;;1.10;;
30096;SDS011;16915;51.466;3.610;2022-07-18T11:56:47;1.17;;;1.05;;
30096;SDS011;16915;51.466;3.610;2022-07-18T11:59:16;2.15;;;1.10;;
30096;SDS011;16915;51.466;3.610;2022-07-18T12:01:43;2.65;;;1.13;;
30096;SDS011;16915;51.466;3.610;2022-07-18T12:04:19;3.97;;;1.23;;
30096;SDS011;16915;51.466;3.610;2022-07-18T12:09:39;3.53;;;1.38;;
30096;SDS011;16915;51.466;3.610;2022-07-18T12:12:11;11.45;;;1.45;;
30096;SDS011;16915;51.466;3.610;2022-07-18T12:14:39;2.15;;;0.85;;
30096;SDS011;16915;51.466;3.610;2022-07-18T12:17:06;3.60;;;1.00;;
30096;SDS011;16915;51.466;3.610;2022-07-18T12:19:33;1.30;;;1.20;;
30096;SDS011;16915;51.466;3.610;2022-07-18T12:22:04;1.27;;;1.17;;
30096;SDS011;16915;51.466;3.610;2022-07-18T12:24:50;4.13;;;1.40;;
30096;SDS011;16915;51.466;3.610;2022-07-18T12:27:23;1.75;;;0.90;;
30096;SDS011;16915;51.466;3.610;2022-07-18T12:37:55;1.38;;;1.27;;
30096;SDS011;16915;51.466;3.610;2022-07-18T12:40:47;1.23;;;0.90;;
30096;SDS011;16915;51.466;3.610;2022-07-18T12:43:22;4.15;;;1.20;;
30096;SDS011;16915;51.466;3.610;2022-07-18T12:45:52;3.67;;;1.23;;
30096;SDS011;16915;51.466;3.610;2022-07-18T12:48:18;1.20;;;1.10;;
30096;SDS011;16915;51.466;3.610;2022-07-18T12:50:45;1.70;;;1.00;;
30096;SDS011;16915;51.466;3.610;2022-07-18T12:53:19;4.03;;;1.10;;
30096;SDS011;16915;51.466;3.610;2022-07-18T12:55:45;3.05;;;1.40;;
30096;SDS011;16915;51.466;3.610;2022-07-18T12:58:11;2.78;;;1.20;;
30096;SDS011;16915;51.466;3.610;2022-07-18T13:00:36;2.88;;;1.00;;
30096;SDS011;16915;51.466;3.610;2022-07-18T13:03:03;3.53;;;1.38;;
30096;SDS011;16915;51.466;3.610;2022-07-18T13:05:30;1.55;;;1.25;;
30096;SDS011;16915;51.466;3.610;2022-07-18T13:07:56;2.25;;;1.40;;
30096;SDS011;16915;51.466;3.610;2022-07-18T13:10:23;1.15;;;1.05;;
30096;SDS011;16915;51.466;3.610;2022-07-18T13:12:49;2.50;;;1.20;;
30096;SDS011;16915;51.466;3.610;2022-07-18T13:15:15;2.22;;;1.30;;
30096;SDS011;16915;51.466;3.610;2022-07-18T13:17:46;7.28;;;1.30;;
30096;SDS011;16915;51.466;3.610;2022-07-18T13:20:16;7.03;;;1.55;;
30096;SDS011;16915;51.466;3.610;2022-07-18T13:22:42;2.42;;;1.00;;
30096;SDS011;16915;51.466;3.610;2022-07-18T13:25:09;1.17;;;1.08;;
30096;SDS011;16915;51.466;3.610;2022-07-18T13:27:36;2.03;;;1.05;;
30096;SDS011;16915;51.466;3.610;2022-07-18T13:30:03;1.48;;;1.20;;
30096;SDS011;16915;51.466;3.610;2022-07-18T13:32:30;7.93;;;1.40;;
30096;SDS011;16915;51.466;3.610;2022-07-18T13:34:56;3.33;;;1.00;;
30096;SDS011;16915;51.466;3.610;2022-07-18T13:37:22;2.10;;;1.10;;
30096;SDS011;16915;51.466;3.610;2022-07-18T13:39:48;1.88;;;1.10;;
30096;SDS011;16915;51.466;3.610;2022-07-18T13:42:14;2.95;;;0.90;;
30096;SDS011;16915;51.466;3.610;2022-07-18T13:44:40;2.60;;;1.25;;
30096;SDS011;16915;51.466;3.610;2022-07-18T13:47:06;4.60;;;1.08;;
30096;SDS011;16915;51.466;3.610;2022-07-18T13:49:31;1.13;;;1.00;;
30096;SDS011;16915;51.466;3.610;2022-07-18T13:51:57;2.45;;;1.23;;
30096;SDS011;16915;51.466;3.610;2022-07-18T13:54:22;1.70;;;1.02;;
30096;SDS011;16915;51.466;3.610;2022-07-18T13:56:48;1.20;;;1.10;;
30096;SDS011;16915;51.466;3.610;2022-07-18T13:59:14;4.00;;;1.23;;
30096;SDS011;16915;51.466;3.610;2022-07-18T14:01:41;2.65;;;1.30;;
30096;SDS011;16915;51.466;3.610;2022-07-18T14:04:08;1.52;;;0.90;;
30096;SDS011;16915;51.466;3.610;2022-07-18T14:06:35;4.13;;;1.20;;
30096;SDS011;16915;51.466;3.610;2022-07-18T14:09:02;1.95;;;1.23;;
30096;SDS011;16915;51.466;3.610;2022-07-18T14:11:29;3.42;;;1.00;;
30096;SDS011;16915;51.466;3.610;2022-07-18T14:13:57;5.25;;;1.30;;
30096;SDS011;16915;51.466;3.610;2022-07-18T14:16:23;2.92;;;1.25;;
30096;SDS011;16915;51.466;3.610;2022-07-18T14:18:50;1.65;;;1.08;;
30096;SDS011;16915;51.466;3.610;2022-07-18T14:21:16;2.10;;;1.20;;
30096;SDS011;16915;51.466;3.610;2022-07-18T14:23:42;1.20;;;1.10;;
30096;SDS011;16915;51.466;3.610;2022-07-18T14:26:07;2.25;;;1.15;;
30096;SDS011;16915;51.466;3.610;2022-07-18T14:28:33;1.92;;;0.95;;
30096;SDS011;16915;51.466;3.610;2022-07-18T14:30:58;1.77;;;1.10;;
30096;SDS011;16915;51.466;3.610;2022-07-18T14:33:24;5.43;;;1.20;;
30096;SDS011;16915;51.466;3.610;2022-07-18T14:35:50;2.80;;;1.20;;
30096;SDS011;16915;51.466;3.610;2022-07-18T14:38:16;2.10;;;0.98;;
30096;SDS011;16915;51.466;3.610;2022-07-18T14:40:42;3.70;;;1.27;;
30096;SDS011;16915;51.466;3.610;2022-07-18T14:43:08;1.35;;;0.90;;
30096;SDS011;16915;51.466;3.610;2022-07-18T14:45:33;1.15;;;0.90;;
30096;SDS011;16915;51.466;3.610;2022-07-18T14:47:59;2.30;;;1.25;;
30096;SDS011;16915;51.466;3.610;2022-07-18T14:50:27;1.20;;;0.98;;
30096;SDS011;16915;51.466;3.610;2022-07-18T14:52:53;6.82;;;1.05;;
30096;SDS011;16915;51.466;3.610;2022-07-18T14:55:18;2.45;;;1.27;;
30096;SDS011;16915;51.466;3.610;2022-07-18T14:57:44;1.60;;;1.00;;
30096;SDS011;16915;51.466;3.610;2022-07-18T15:00:10;1.13;;;1.02;;
30096;SDS011;16915;51.466;3.610;2022-07-18T15:02:37;1.98;;;1.20;;
30096;SDS011;16915;51.466;3.610;2022-07-18T15:05:03;6.15;;;1.23;;
30096;SDS011;16915;51.466;3.610;2022-07-18T15:07:30;1.35;;;0.98;;
30096;SDS011;16915;51.466;3.610;2022-07-18T15:09:55;3.25;;;1.20;;
30096;SDS011;16915;51.466;3.610;2022-07-18T15:12:21;5.35;;;1.25;;
30096;SDS011;16915;51.466;3.610;2022-07-18T15:14:47;3.22;;;1.00;;
30096;SDS011;16915;51.466;3.610;2022-07-18T15:17:14;1.35;;;1.20;;
30096;SDS011;16915;51.466;3.610;2022-07-18T15:19:40;1.10;;;1.00;;
30096;SDS011;16915;51.466;3.610;2022-07-18T15:22:05;6.05;;;1.33;;
30096;SDS011;16915;51.466;3.610;2022-07-18T15:24:32;2.20;;;1.30;;
30096;SDS011;16915;51.466;3.610;2022-07-18T15:26:58;1.05;;;0.95;;
30096;SDS011;16915;51.466;3.610;2022-07-18T15:29:23;2.45;;;1.00;;
30096;SDS011;16915;51.466;3.610;2022-07-18T15:31:51;3.47;;;2.00;;
30096;SDS011;16915;51.466;3.610;2022-07-18T15:34:16;3.08;;;1.58;;
30096;SDS011;16915;51.466;3.610;2022-07-18T15:36:42;2.38;;;1.00;;
30096;SDS011;16915;51.466;3.610;2022-07-18T15:39:08;2.42;;;1.17;;
30096;SDS011;16915;51.466;3.610;2022-07-18T15:41:33;3.97;;;2.92;;
30096;SDS011;16915;51.466;3.610;2022-07-18T15:43:59;4.18;;;1.80;;
30096;SDS011;16915;51.466;3.610;2022-07-18T15:46:26;5.95;;;2.22;;
30096;SDS011;16915;51.466;3.610;2022-07-18T15:48:52;1.45;;;1.30;;